sensor_id;sensor_type;location;lat;lon;timestamp;temperature;humidity
7876;DHT22;69649;53.712;9.680;2023-05-23T00:00:59;17.20;74.40
7876;DHT22;69649;53.712;9.680;2023-05-23T00:03:26;17.20;74.40
7876;DHT22;69649;53.712;9.680;2023-05-23T00:05:51;17.20;74.60
7876;DHT22;69649;53.712;9.680;2023-05-23T00:08:17;17.20;74.40
7876;DHT22;69649;53.712;9.680;2023-05-23T00:10:44;17.20;74.30
7876;DHT22;69649;53.712;9.680;2023-05-23T00:13:10;17.20;74.50
7876;DHT22;69649;53.712;9.680;2023-05-23T00:15:41;17.10;74.80
7876;DHT22;69649;53.712;9.680;2023-05-23T00:18:07;17.10;74.80
7876;DHT22;69649;53.712;9.680;2023-05-23T00:20:36;17.20;74.70
7876;DHT22;69649;53.712;9.680;2023-05-23T00:23:04;17.20;74.70
7876;DHT22;69649;53.712;9.680;2023-05-23T00:25:30;17.20;74.70
7876;DHT22;69649;53.712;9.680;2023-05-23T00:28:02;17.20;74.70
7876;DHT22;69649;53.712;9.680;2023-05-23T00:30:32;17.20;74.90
7876;DHT22;69649;53.712;9.680;2023-05-23T00:32:58;17.10;74.90
7876;DHT22;69649;53.712;9.680;2023-05-23T00:35:25;17.20;74.90
7876;DHT22;69649;53.712;9.680;2023-05-23T00:37:51;17.20;74.80
7876;DHT22;69649;53.712;9.680;2023-05-23T00:40:17;17.20;74.70
7876;DHT22;69649;53.712;9.680;2023-05-23T00:42:44;17.20;74.70
7876;DHT22;69649;53.712;9.680;2023-05-23T00:45:10;17.20;74.70
7876;DHT22;69649;53.712;9.680;2023-05-23T00:47:40;17.40;74.70
7876;DHT22;69649;53.712;9.680;2023-05-23T00:50:08;17.40;74.60
7876;DHT22;69649;53.712;9.680;2023-05-23T00:52:34;17.30;74.60
7876;DHT22;69649;53.712;9.680;2023-05-23T00:55:00;17.40;74.60
7876;DHT22;69649;53.712;9.680;2023-05-23T00:57:27;17.40;74.70
7876;DHT22;69649;53.712;9.680;2023-05-23T00:59:53;17.40;74.50
7876;DHT22;69649;53.712;9.680;2023-05-23T01:02:19;17.30;74.70
7876;DHT22;69649;53.712;9.680;2023-05-23T01:04:48;17.20;75.00
7876;DHT22;69649;53.712;9.680;2023-05-23T01:07:16;17.20;74.80
7876;DHT22;69649;53.712;9.680;2023-05-23T01:09:42;17.20;75.00
7876;DHT22;69649;53.712;9.680;2023-05-23T01:17:54;17.00;75.00
7876;DHT22;69649;53.712;9.680;2023-05-23T01:20:34;17.00;75.10
7876;DHT22;69649;53.712;9.680;2023-05-23T01:28:57;17.10;74.70
7876;DHT22;69649;53.712;9.680;2023-05-23T01:31:24;16.90;75.40
7876;DHT22;69649;53.712;9.680;2023-05-23T01:33:53;16.40;75.30
7876;DHT22;69649;53.712;9.680;2023-05-23T01:36:19;16.00;75.80
7876;DHT22;69649;53.712;9.680;2023-05-23T01:38:45;15.80;75.90
7876;DHT22;69649;53.712;9.680;2023-05-23T01:41:11;15.60;75.90
7876;DHT22;69649;53.712;9.680;2023-05-23T01:43:37;15.50;76.40
7876;DHT22;69649;53.712;9.680;2023-05-23T01:46:05;15.50;76.40
7876;DHT22;69649;53.712;9.680;2023-05-23T01:48:32;15.50;76.50
7876;DHT22;69649;53.712;9.680;2023-05-23T01:50:58;15.40;76.70
7876;DHT22;69649;53.712;9.680;2023-05-23T01:53:24;15.40;76.70
7876;DHT22;69649;53.712;9.680;2023-05-23T01:55:51;15.40;76.50
7876;DHT22;69649;53.712;9.680;2023-05-23T01:58:17;15.30;76.50
7876;DHT22;69649;53.712;9.680;2023-05-23T02:00:43;15.10;76.60
7876;DHT22;69649;53.712;9.680;2023-05-23T02:03:09;15.00;76.50
7876;DHT22;69649;53.712;9.680;2023-05-23T02:05:36;15.00;76.40
7876;DHT22;69649;53.712;9.680;2023-05-23T02:08:01;14.80;76.60
7876;DHT22;69649;53.712;9.680;2023-05-23T02:10:27;14.80;76.70
7876;DHT22;69649;53.712;9.680;2023-05-23T02:12:53;14.70;76.90
7876;DHT22;69649;53.712;9.680;2023-05-23T02:15:19;14.60;77.00
7876;DHT22;69649;53.712;9.680;2023-05-23T02:17:45;14.60;76.80
7876;DHT22;69649;53.712;9.680;2023-05-23T02:20:12;14.50;77.00
7876;DHT22;69649;53.712;9.680;2023-05-23T02:22:39;14.50;77.20
7876;DHT22;69649;53.712;9.680;2023-05-23T02:25:06;14.60;77.30
7876;DHT22;69649;53.712;9.680;2023-05-23T02:27:32;14.70;76.90
7876;DHT22;69649;53.712;9.680;2023-05-23T02:29:57;14.60;76.90
7876;DHT22;69649;53.712;9.680;2023-05-23T02:32:23;14.70;76.90
7876;DHT22;69649;53.712;9.680;2023-05-23T02:34:49;14.70;76.80
7876;DHT22;69649;53.712;9.680;2023-05-23T02:37:15;14.60;76.90
7876;DHT22;69649;53.712;9.680;2023-05-23T02:39:43;14.60;77.00
7876;DHT22;69649;53.712;9.680;2023-05-23T02:42:08;14.60;77.00
7876;DHT22;69649;53.712;9.680;2023-05-23T02:44:34;14.60;76.90
7876;DHT22;69649;53.712;9.680;2023-05-23T02:47:00;14.60;77.00
7876;DHT22;69649;53.712;9.680;2023-05-23T02:49:26;14.60;76.80
7876;DHT22;69649;53.712;9.680;2023-05-23T02:51:51;14.60;76.80
7876;DHT22;69649;53.712;9.680;2023-05-23T02:54:17;14.50;76.90
7876;DHT22;69649;53.712;9.680;2023-05-23T02:56:44;14.40;77.00
7876;DHT22;69649;53.712;9.680;2023-05-23T02:59:11;14.30;77.30
7876;DHT22;69649;53.712;9.680;2023-05-23T03:01:37;14.30;77.30
7876;DHT22;69649;53.712;9.680;2023-05-23T03:04:03;14.30;77.40
7876;DHT22;69649;53.712;9.680;2023-05-23T03:06:29;14.30;77.40
7876;DHT22;69649;53.712;9.680;2023-05-23T03:08:56;14.40;77.20
7876;DHT22;69649;53.712;9.680;2023-05-23T03:11:22;14.40;77.30
7876;DHT22;69649;53.712;9.680;2023-05-23T03:13:48;14.40;77.10
7876;DHT22;69649;53.712;9.680;2023-05-23T03:16:13;14.40;77.00
7876;DHT22;69649;53.712;9.680;2023-05-23T03:18:39;14.40;77.00
7876;DHT22;69649;53.712;9.680;2023-05-23T03:21:06;14.40;76.80
7876;DHT22;69649;53.712;9.680;2023-05-23T03:23:33;14.60;76.70
7876;DHT22;69649;53.712;9.680;2023-05-23T03:25:58;14.60;76.50
7876;DHT22;69649;53.712;9.680;2023-05-23T03:28:24;14.40;76.40
7876;DHT22;69649;53.712;9.680;2023-05-23T03:30:51;14.40;76.70
7876;DHT22;69649;53.712;9.680;2023-05-23T03:33:17;14.30;76.80
7876;DHT22;69649;53.712;9.680;2023-05-23T03:35:43;14.30;76.80
7876;DHT22;69649;53.712;9.680;2023-05-23T03:38:09;14.20;77.10
7876;DHT22;69649;53.712;9.680;2023-05-23T03:40:34;14.20;77.10
7876;DHT22;69649;53.712;9.680;2023-05-23T03:43:01;14.30;77.10
7876;DHT22;69649;53.712;9.680;2023-05-23T03:45:30;14.30;76.80
7876;DHT22;69649;53.712;9.680;2023-05-23T03:47:56;14.40;76.70
7876;DHT22;69649;53.712;9.680;2023-05-23T03:50:22;14.30;77.00
7876;DHT22;69649;53.712;9.680;2023-05-23T03:52:47;14.30;77.20
7876;DHT22;69649;53.712;9.680;2023-05-23T03:55:13;14.30;76.90
7876;DHT22;69649;53.712;9.680;2023-05-23T03:57:39;14.30;77.20
7876;DHT22;69649;53.712;9.680;2023-05-23T04:00:06;14.20;76.90
7876;DHT22;69649;53.712;9.680;2023-05-23T04:02:34;14.20;77.10
7876;DHT22;69649;53.712;9.680;2023-05-23T04:05:00;14.10;77.20
7876;DHT22;69649;53.712;9.680;2023-05-23T04:07:27;14.10;77.10
7876;DHT22;69649;53.712;9.680;2023-05-23T04:09:53;14.10;77.00
7876;DHT22;69649;53.712;9.680;2023-05-23T04:12:19;14.10;77.10
7876;DHT22;69649;53.712;9.680;2023-05-23T04:14:46;14.10;77.20
7876;DHT22;69649;53.712;9.680;2023-05-23T04:17:13;14.00;77.30
7876;DHT22;69649;53.712;9.680;2023-05-23T04:19:39;14.20;77.40
7876;DHT22;69649;53.712;9.680;2023-05-23T04:22:05;14.20;77.20
7876;DHT22;69649;53.712;9.680;2023-05-23T04:24:30;14.10;77.20
7876;DHT22;69649;53.712;9.680;2023-05-23T04:26:56;14.30;77.60
7876;DHT22;69649;53.712;9.680;2023-05-23T04:29:24;14.50;76.80
7876;DHT22;69649;53.712;9.680;2023-05-23T04:31:51;14.70;77.10
7876;DHT22;69649;53.712;9.680;2023-05-23T04:34:16;15.20;75.10
7876;DHT22;69649;53.712;9.680;2023-05-23T04:36:42;15.20;74.60
7876;DHT22;69649;53.712;9.680;2023-05-23T04:39:09;15.00;75.10
7876;DHT22;69649;53.712;9.680;2023-05-23T04:41:34;15.30;74.50
7876;DHT22;69649;53.712;9.680;2023-05-23T04:44:01;15.00;74.50
7876;DHT22;69649;53.712;9.680;2023-05-23T04:46:27;14.70;75.60
7876;DHT22;69649;53.712;9.680;2023-05-23T04:48:53;14.50;76.10
7876;DHT22;69649;53.712;9.680;2023-05-23T04:51:23;14.50;76.40
7876;DHT22;69649;53.712;9.680;2023-05-23T04:53:50;14.40;76.60
7876;DHT22;69649;53.712;9.680;2023-05-23T04:56:17;14.30;77.00
7876;DHT22;69649;53.712;9.680;2023-05-23T04:58:46;14.30;77.10
7876;DHT22;69649;53.712;9.680;2023-05-23T05:01:12;14.30;77.30
7876;DHT22;69649;53.712;9.680;2023-05-23T05:03:39;14.30;77.30
7876;DHT22;69649;53.712;9.680;2023-05-23T05:06:05;14.30;77.50
7876;DHT22;69649;53.712;9.680;2023-05-23T05:08:31;14.30;77.40
7876;DHT22;69649;53.712;9.680;2023-05-23T05:10:57;14.30;77.30
7876;DHT22;69649;53.712;9.680;2023-05-23T05:13:23;14.30;77.50
7876;DHT22;69649;53.712;9.680;2023-05-23T05:15:49;14.20;77.50
7876;DHT22;69649;53.712;9.680;2023-05-23T05:18:17;14.20;77.70
7876;DHT22;69649;53.712;9.680;2023-05-23T05:20:42;14.20;77.90
7876;DHT22;69649;53.712;9.680;2023-05-23T05:23:08;14.10;78.30
7876;DHT22;69649;53.712;9.680;2023-05-23T05:25:34;14.00;78.60
7876;DHT22;69649;53.712;9.680;2023-05-23T05:28:02;14.00;78.80
7876;DHT22;69649;53.712;9.680;2023-05-23T05:30:31;13.90;79.00
7876;DHT22;69649;53.712;9.680;2023-05-23T05:33:03;14.00;79.10
7876;DHT22;69649;53.712;9.680;2023-05-23T05:35:31;14.00;79.20
7876;DHT22;69649;53.712;9.680;2023-05-23T05:37:58;14.00;79.10
7876;DHT22;69649;53.712;9.680;2023-05-23T05:40:24;14.00;79.10
7876;DHT22;69649;53.712;9.680;2023-05-23T05:42:50;14.00;79.40
7876;DHT22;69649;53.712;9.680;2023-05-23T05:45:17;14.00;79.40
7876;DHT22;69649;53.712;9.680;2023-05-23T05:47:44;14.00;79.40
7876;DHT22;69649;53.712;9.680;2023-05-23T05:50:10;14.10;79.40
7876;DHT22;69649;53.712;9.680;2023-05-23T05:52:36;14.00;79.00
7876;DHT22;69649;53.712;9.680;2023-05-23T05:55:05;14.00;79.00
7876;DHT22;69649;53.712;9.680;2023-05-23T05:57:32;14.00;79.10
7876;DHT22;69649;53.712;9.680;2023-05-23T05:59:58;13.90;79.20
7876;DHT22;69649;53.712;9.680;2023-05-23T06:02:24;13.90;79.20
7876;DHT22;69649;53.712;9.680;2023-05-23T06:04:51;14.00;79.50
7876;DHT22;69649;53.712;9.680;2023-05-23T06:07:17;14.00;79.50
7876;DHT22;69649;53.712;9.680;2023-05-23T06:09:42;14.00;79.60
7876;DHT22;69649;53.712;9.680;2023-05-23T06:12:09;14.00;79.60
7876;DHT22;69649;53.712;9.680;2023-05-23T06:14:35;14.10;79.30
7876;DHT22;69649;53.712;9.680;2023-05-23T06:17:00;14.10;79.30
7876;DHT22;69649;53.712;9.680;2023-05-23T06:19:26;14.10;79.00
7876;DHT22;69649;53.712;9.680;2023-05-23T06:21:52;14.10;78.70
7876;DHT22;69649;53.712;9.680;2023-05-23T06:24:17;14.10;78.40
7876;DHT22;69649;53.712;9.680;2023-05-23T06:26:43;14.00;78.10
7876;DHT22;69649;53.712;9.680;2023-05-23T06:29:11;14.00;78.40
7876;DHT22;69649;53.712;9.680;2023-05-23T06:31:37;13.90;78.10
7876;DHT22;69649;53.712;9.680;2023-05-23T06:34:03;13.90;78.40
7876;DHT22;69649;53.712;9.680;2023-05-23T06:36:29;13.90;77.80
7876;DHT22;69649;53.712;9.680;2023-05-23T06:38:56;13.80;77.60
7876;DHT22;69649;53.712;9.680;2023-05-23T06:41:22;13.60;77.10
7876;DHT22;69649;53.712;9.680;2023-05-23T06:43:48;13.70;77.70
7876;DHT22;69649;53.712;9.680;2023-05-23T06:46:13;13.60;77.40
7876;DHT22;69649;53.712;9.680;2023-05-23T06:48:39;13.60;77.50
7876;DHT22;69649;53.712;9.680;2023-05-23T06:51:05;13.30;78.00
7876;DHT22;69649;53.712;9.680;2023-05-23T06:53:31;13.30;78.40
7876;DHT22;69649;53.712;9.680;2023-05-23T06:55:56;13.50;78.70
7876;DHT22;69649;53.712;9.680;2023-05-23T06:58:22;13.40;78.60
7876;DHT22;69649;53.712;9.680;2023-05-23T07:00:49;13.50;78.50
7876;DHT22;69649;53.712;9.680;2023-05-23T07:03:15;13.50;78.10
7876;DHT22;69649;53.712;9.680;2023-05-23T07:05:41;13.50;78.00
7876;DHT22;69649;53.712;9.680;2023-05-23T07:08:07;13.50;78.10
7876;DHT22;69649;53.712;9.680;2023-05-23T07:10:35;13.50;77.60
7876;DHT22;69649;53.712;9.680;2023-05-23T07:13:01;13.50;77.70
7876;DHT22;69649;53.712;9.680;2023-05-23T07:15:26;13.50;77.80
7876;DHT22;69649;53.712;9.680;2023-05-23T07:17:52;13.20;77.10
7876;DHT22;69649;53.712;9.680;2023-05-23T07:20:18;13.10;77.30
7876;DHT22;69649;53.712;9.680;2023-05-23T07:22:44;13.10;77.40
7876;DHT22;69649;53.712;9.680;2023-05-23T07:25:09;13.10;78.00
7876;DHT22;69649;53.712;9.680;2023-05-23T07:27:35;13.10;78.30
7876;DHT22;69649;53.712;9.680;2023-05-23T07:30:01;13.10;78.30
7876;DHT22;69649;53.712;9.680;2023-05-23T07:32:27;13.10;78.10
7876;DHT22;69649;53.712;9.680;2023-05-23T07:34:53;13.30;78.00
7876;DHT22;69649;53.712;9.680;2023-05-23T07:37:19;13.30;78.10
7876;DHT22;69649;53.712;9.680;2023-05-23T07:39:45;13.20;78.20
7876;DHT22;69649;53.712;9.680;2023-05-23T07:42:11;13.10;78.20
7876;DHT22;69649;53.712;9.680;2023-05-23T07:44:37;13.10;78.10
7876;DHT22;69649;53.712;9.680;2023-05-23T07:47:03;13.10;78.00
7876;DHT22;69649;53.712;9.680;2023-05-23T07:49:29;13.30;77.80
7876;DHT22;69649;53.712;9.680;2023-05-23T07:51:55;13.40;77.60
7876;DHT22;69649;53.712;9.680;2023-05-23T07:54:21;13.40;77.50
7876;DHT22;69649;53.712;9.680;2023-05-23T07:56:47;13.30;77.70
7876;DHT22;69649;53.712;9.680;2023-05-23T07:59:13;13.30;78.30
7876;DHT22;69649;53.712;9.680;2023-05-23T08:01:38;13.30;78.60
7876;DHT22;69649;53.712;9.680;2023-05-23T08:04:05;13.40;78.70
7876;DHT22;69649;53.712;9.680;2023-05-23T08:06:31;13.50;78.50
7876;DHT22;69649;53.712;9.680;2023-05-23T08:08:58;13.50;78.10
7876;DHT22;69649;53.712;9.680;2023-05-23T08:11:24;13.30;77.70
7876;DHT22;69649;53.712;9.680;2023-05-23T08:13:49;13.10;78.20
7876;DHT22;69649;53.712;9.680;2023-05-23T08:16:15;13.10;78.30
7876;DHT22;69649;53.712;9.680;2023-05-23T08:18:41;12.80;78.50
7876;DHT22;69649;53.712;9.680;2023-05-23T08:21:07;12.70;78.80
7876;DHT22;69649;53.712;9.680;2023-05-23T08:23:32;12.60;78.80
7876;DHT22;69649;53.712;9.680;2023-05-23T08:25:58;12.50;78.60
7876;DHT22;69649;53.712;9.680;2023-05-23T08:28:26;12.40;78.90
7876;DHT22;69649;53.712;9.680;2023-05-23T08:30:51;12.20;79.10
7876;DHT22;69649;53.712;9.680;2023-05-23T08:33:18;12.20;79.50
7876;DHT22;69649;53.712;9.680;2023-05-23T08:35:44;12.20;79.50
7876;DHT22;69649;53.712;9.680;2023-05-23T08:38:11;12.20;79.60
7876;DHT22;69649;53.712;9.680;2023-05-23T08:40:38;12.20;79.30
7876;DHT22;69649;53.712;9.680;2023-05-23T08:43:06;12.20;79.30
7876;DHT22;69649;53.712;9.680;2023-05-23T08:45:34;12.20;79.00
7876;DHT22;69649;53.712;9.680;2023-05-23T08:48:00;11.90;78.80
7876;DHT22;69649;53.712;9.680;2023-05-23T08:50:27;11.80;79.20
7876;DHT22;69649;53.712;9.680;2023-05-23T08:52:57;11.70;79.40
7876;DHT22;69649;53.712;9.680;2023-05-23T08:55:23;11.70;79.40
7876;DHT22;69649;53.712;9.680;2023-05-23T08:57:52;11.90;79.30
7876;DHT22;69649;53.712;9.680;2023-05-23T09:00:19;11.80;78.90
7876;DHT22;69649;53.712;9.680;2023-05-23T09:02:45;11.80;78.80
7876;DHT22;69649;53.712;9.680;2023-05-23T09:05:12;11.70;78.70
7876;DHT22;69649;53.712;9.680;2023-05-23T09:07:39;11.70;79.00
7876;DHT22;69649;53.712;9.680;2023-05-23T09:10:06;11.80;78.60
7876;DHT22;69649;53.712;9.680;2023-05-23T09:12:34;11.80;78.30
7876;DHT22;69649;53.712;9.680;2023-05-23T09:15:03;11.70;78.40
7876;DHT22;69649;53.712;9.680;2023-05-23T09:17:31;11.70;78.60
7876;DHT22;69649;53.712;9.680;2023-05-23T09:20:11;11.70;78.40
7876;DHT22;69649;53.712;9.680;2023-05-23T09:22:39;11.70;77.90
7876;DHT22;69649;53.712;9.680;2023-05-23T09:25:06;11.90;78.20
7876;DHT22;69649;53.712;9.680;2023-05-23T09:27:33;11.90;77.70
7876;DHT22;69649;53.712;9.680;2023-05-23T09:30:05;11.90;77.50
7876;DHT22;69649;53.712;9.680;2023-05-23T09:32:31;11.90;77.70
7876;DHT22;69649;53.712;9.680;2023-05-23T09:35:02;12.00;77.60
7876;DHT22;69649;53.712;9.680;2023-05-23T09:37:31;11.90;77.60
7876;DHT22;69649;53.712;9.680;2023-05-23T09:39:59;12.00;77.20
7876;DHT22;69649;53.712;9.680;2023-05-23T09:42:31;11.90;76.90
7876;DHT22;69649;53.712;9.680;2023-05-23T09:44:58;11.90;77.00
7876;DHT22;69649;53.712;9.680;2023-05-23T09:47:24;12.00;77.00
7876;DHT22;69649;53.712;9.680;2023-05-23T09:49:51;11.90;76.30
7876;DHT22;69649;53.712;9.680;2023-05-23T09:52:17;11.90;76.40
7876;DHT22;69649;53.712;9.680;2023-05-23T09:54:46;11.90;76.10
7876;DHT22;69649;53.712;9.680;2023-05-23T09:57:14;11.90;75.30
7876;DHT22;69649;53.712;9.680;2023-05-23T10:00:02;12.00;75.50
7876;DHT22;69649;53.712;9.680;2023-05-23T10:02:15;12.10;75.30
7876;DHT22;69649;53.712;9.680;2023-05-23T10:04:42;12.00;75.00
7876;DHT22;69649;53.712;9.680;2023-05-23T10:07:13;11.90;74.30
7876;DHT22;69649;53.712;9.680;2023-05-23T10:09:41;11.90;74.10
7876;DHT22;69649;53.712;9.680;2023-05-23T10:15:02;11.90;74.10
7876;DHT22;69649;53.712;9.680;2023-05-23T10:20:21;12.10;73.40
7876;DHT22;69649;53.712;9.680;2023-05-23T10:22:48;12.30;73.30
7876;DHT22;69649;53.712;9.680;2023-05-23T10:25:15;12.30;72.10
7876;DHT22;69649;53.712;9.680;2023-05-23T10:27:42;12.40;72.00
7876;DHT22;69649;53.712;9.680;2023-05-23T10:30:08;12.50;72.20
7876;DHT22;69649;53.712;9.680;2023-05-23T10:32:36;12.80;70.50
7876;DHT22;69649;53.712;9.680;2023-05-23T10:35:26;12.60;70.50
7876;DHT22;69649;53.712;9.680;2023-05-23T10:37:47;12.60;70.60
7876;DHT22;69649;53.712;9.680;2023-05-23T10:43:02;12.50;70.00
7876;DHT22;69649;53.712;9.680;2023-05-23T10:45:29;12.60;70.50
7876;DHT22;69649;53.712;9.680;2023-05-23T10:47:55;12.90;70.30
7876;DHT22;69649;53.712;9.680;2023-05-23T10:50:34;13.10;69.50
7876;DHT22;69649;53.712;9.680;2023-05-23T10:53:03;13.10;68.80
7876;DHT22;69649;53.712;9.680;2023-05-23T10:55:34;13.00;68.80
7876;DHT22;69649;53.712;9.680;2023-05-23T10:58:20;13.00;68.50
7876;DHT22;69649;53.712;9.680;2023-05-23T11:00:52;13.00;68.90
7876;DHT22;69649;53.712;9.680;2023-05-23T11:06:01;13.20;67.70
7876;DHT22;69649;53.712;9.680;2023-05-23T11:08:35;13.40;67.50
7876;DHT22;69649;53.712;9.680;2023-05-23T11:11:03;13.50;67.10
7876;DHT22;69649;53.712;9.680;2023-05-23T11:13:54;13.30;65.70
7876;DHT22;69649;53.712;9.680;2023-05-23T11:16:39;13.20;66.20
7876;DHT22;69649;53.712;9.680;2023-05-23T11:22:00;13.30;65.70
7876;DHT22;69649;53.712;9.680;2023-05-23T11:27:15;13.30;65.30
7876;DHT22;69649;53.712;9.680;2023-05-23T11:29:41;13.20;65.00
7876;DHT22;69649;53.712;9.680;2023-05-23T11:32:11;13.10;64.80
7876;DHT22;69649;53.712;9.680;2023-05-23T11:34:38;13.30;64.70
7876;DHT22;69649;53.712;9.680;2023-05-23T11:37:04;13.80;63.60
7876;DHT22;69649;53.712;9.680;2023-05-23T11:39:30;13.90;62.30
7876;DHT22;69649;53.712;9.680;2023-05-23T11:41:59;13.80;63.30
7876;DHT22;69649;53.712;9.680;2023-05-23T11:44:26;13.60;63.10
7876;DHT22;69649;53.712;9.680;2023-05-23T11:47:03;13.90;63.40
7876;DHT22;69649;53.712;9.680;2023-05-23T11:49:30;14.40;62.20
7876;DHT22;69649;53.712;9.680;2023-05-23T11:51:58;14.70;60.20
7876;DHT22;69649;53.712;9.680;2023-05-23T11:54:25;14.50;60.50
7876;DHT22;69649;53.712;9.680;2023-05-23T11:56:51;14.20;61.30
7876;DHT22;69649;53.712;9.680;2023-05-23T11:59:17;14.20;61.40
7876;DHT22;69649;53.712;9.680;2023-05-23T12:01:43;14.70;60.60
7876;DHT22;69649;53.712;9.680;2023-05-23T12:04:10;14.80;60.00
7876;DHT22;69649;53.712;9.680;2023-05-23T12:06:39;14.40;60.70
7876;DHT22;69649;53.712;9.680;2023-05-23T12:09:10;14.70;60.70
7876;DHT22;69649;53.712;9.680;2023-05-23T12:11:34;14.70;60.20
7876;DHT22;69649;53.712;9.680;2023-05-23T12:14:00;15.00;60.70
7876;DHT22;69649;53.712;9.680;2023-05-23T12:16:31;15.30;58.40
7876;DHT22;69649;53.712;9.680;2023-05-23T12:18:59;15.10;58.20
7876;DHT22;69649;53.712;9.680;2023-05-23T12:21:27;14.90;59.40
7876;DHT22;69649;53.712;9.680;2023-05-23T12:23:55;14.90;58.70
7876;DHT22;69649;53.712;9.680;2023-05-23T12:26:21;14.70;59.60
7876;DHT22;69649;53.712;9.680;2023-05-23T12:28:47;14.90;59.60
7876;DHT22;69649;53.712;9.680;2023-05-23T12:31:18;14.80;58.90
7876;DHT22;69649;53.712;9.680;2023-05-23T12:33:46;14.60;58.10
7876;DHT22;69649;53.712;9.680;2023-05-23T12:36:13;14.10;59.00
7876;DHT22;69649;53.712;9.680;2023-05-23T12:38:41;14.10;59.30
7876;DHT22;69649;53.712;9.680;2023-05-23T12:41:13;13.90;59.60
7876;DHT22;69649;53.712;9.680;2023-05-23T12:43:39;13.60;60.40
7876;DHT22;69649;53.712;9.680;2023-05-23T12:46:06;13.70;60.90
7876;DHT22;69649;53.712;9.680;2023-05-23T12:48:32;13.70;61.60
7876;DHT22;69649;53.712;9.680;2023-05-23T12:50:59;13.80;60.10
7876;DHT22;69649;53.712;9.680;2023-05-23T12:53:25;13.90;60.70
7876;DHT22;69649;53.712;9.680;2023-05-23T12:55:51;14.00;60.10
7876;DHT22;69649;53.712;9.680;2023-05-23T12:58:17;13.70;60.50
7876;DHT22;69649;53.712;9.680;2023-05-23T13:00:42;13.50;60.90
7876;DHT22;69649;53.712;9.680;2023-05-23T13:03:08;13.60;61.50
7876;DHT22;69649;53.712;9.680;2023-05-23T13:05:34;13.90;59.80
7876;DHT22;69649;53.712;9.680;2023-05-23T13:08:00;14.20;58.80
7876;DHT22;69649;53.712;9.680;2023-05-23T13:10:26;14.00;59.00
7876;DHT22;69649;53.712;9.680;2023-05-23T13:12:52;13.70;59.70
7876;DHT22;69649;53.712;9.680;2023-05-23T13:15:18;13.60;59.00
7876;DHT22;69649;53.712;9.680;2023-05-23T13:17:43;13.70;59.70
7876;DHT22;69649;53.712;9.680;2023-05-23T13:20:11;13.70;60.20
7876;DHT22;69649;53.712;9.680;2023-05-23T13:22:39;14.00;59.70
7876;DHT22;69649;53.712;9.680;2023-05-23T13:25:06;13.90;59.30
7876;DHT22;69649;53.712;9.680;2023-05-23T13:27:33;13.70;59.20
7876;DHT22;69649;53.712;9.680;2023-05-23T13:29:59;13.80;59.70
7876;DHT22;69649;53.712;9.680;2023-05-23T13:32:25;13.60;59.50
7876;DHT22;69649;53.712;9.680;2023-05-23T13:34:51;13.90;59.40
7876;DHT22;69649;53.712;9.680;2023-05-23T13:37:17;13.70;58.70
7876;DHT22;69649;53.712;9.680;2023-05-23T13:39:43;13.90;58.40
7876;DHT22;69649;53.712;9.680;2023-05-23T13:42:09;13.90;58.90
7876;DHT22;69649;53.712;9.680;2023-05-23T13:44:35;13.90;59.70
7876;DHT22;69649;53.712;9.680;2023-05-23T13:47:12;13.70;59.70
7876;DHT22;69649;53.712;9.680;2023-05-23T13:49:38;13.90;60.30
7876;DHT22;69649;53.712;9.680;2023-05-23T13:52:05;13.90;59.00
7876;DHT22;69649;53.712;9.680;2023-05-23T13:54:31;13.80;59.30
7876;DHT22;69649;53.712;9.680;2023-05-23T13:56:57;13.90;59.20
7876;DHT22;69649;53.712;9.680;2023-05-23T13:59:26;13.60;59.50
7876;DHT22;69649;53.712;9.680;2023-05-23T14:01:52;13.40;59.30
7876;DHT22;69649;53.712;9.680;2023-05-23T14:04:18;13.30;60.70
7876;DHT22;69649;53.712;9.680;2023-05-23T14:06:44;13.40;60.00
7876;DHT22;69649;53.712;9.680;2023-05-23T14:09:11;13.50;59.70
7876;DHT22;69649;53.712;9.680;2023-05-23T14:11:37;13.30;59.50
7876;DHT22;69649;53.712;9.680;2023-05-23T14:14:04;13.20;59.10
7876;DHT22;69649;53.712;9.680;2023-05-23T14:16:30;13.10;59.40
7876;DHT22;69649;53.712;9.680;2023-05-23T14:18:56;13.10;59.70
7876;DHT22;69649;53.712;9.680;2023-05-23T14:21:22;13.10;59.90
7876;DHT22;69649;53.712;9.680;2023-05-23T14:23:48;13.00;60.50
7876;DHT22;69649;53.712;9.680;2023-05-23T14:26:14;13.00;60.00
7876;DHT22;69649;53.712;9.680;2023-05-23T14:28:40;12.80;59.80
7876;DHT22;69649;53.712;9.680;2023-05-23T14:31:06;12.90;60.70
7876;DHT22;69649;53.712;9.680;2023-05-23T14:33:32;12.90;60.60
7876;DHT22;69649;53.712;9.680;2023-05-23T14:35:59;13.00;60.70
7876;DHT22;69649;53.712;9.680;2023-05-23T14:38:25;13.10;60.20
7876;DHT22;69649;53.712;9.680;2023-05-23T14:40:52;13.10;60.70
7876;DHT22;69649;53.712;9.680;2023-05-23T14:43:19;13.10;59.90
7876;DHT22;69649;53.712;9.680;2023-05-23T14:45:45;13.00;59.80
7876;DHT22;69649;53.712;9.680;2023-05-23T14:48:12;13.00;59.70
7876;DHT22;69649;53.712;9.680;2023-05-23T14:50:37;12.90;60.50
7876;DHT22;69649;53.712;9.680;2023-05-23T14:53:03;12.90;61.20
7876;DHT22;69649;53.712;9.680;2023-05-23T14:55:29;13.00;61.30
7876;DHT22;69649;53.712;9.680;2023-05-23T14:57:55;12.90;60.50
7876;DHT22;69649;53.712;9.680;2023-05-23T15:00:22;12.90;60.70
7876;DHT22;69649;53.712;9.680;2023-05-23T15:02:49;12.90;59.70
7876;DHT22;69649;53.712;9.680;2023-05-23T15:05:15;12.90;59.10
7876;DHT22;69649;53.712;9.680;2023-05-23T15:07:42;13.00;59.50
7876;DHT22;69649;53.712;9.680;2023-05-23T15:10:09;13.20;58.60
7876;DHT22;69649;53.712;9.680;2023-05-23T15:12:35;13.20;59.30
7876;DHT22;69649;53.712;9.680;2023-05-23T15:15:01;13.40;58.30
7876;DHT22;69649;53.712;9.680;2023-05-23T15:17:31;13.40;58.40
7876;DHT22;69649;53.712;9.680;2023-05-23T15:19:57;13.30;58.30
7876;DHT22;69649;53.712;9.680;2023-05-23T15:22:23;13.10;59.50
7876;DHT22;69649;53.712;9.680;2023-05-23T15:24:50;13.10;59.80
7876;DHT22;69649;53.712;9.680;2023-05-23T15:27:16;13.10;59.00
7876;DHT22;69649;53.712;9.680;2023-05-23T15:29:42;13.10;59.30
7876;DHT22;69649;53.712;9.680;2023-05-23T15:32:07;13.10;59.40
7876;DHT22;69649;53.712;9.680;2023-05-23T15:34:33;13.00;59.60
7876;DHT22;69649;53.712;9.680;2023-05-23T15:36:59;13.10;59.40
7876;DHT22;69649;53.712;9.680;2023-05-23T15:39:25;13.30;59.10
7876;DHT22;69649;53.712;9.680;2023-05-23T15:41:52;13.30;58.00
7876;DHT22;69649;53.712;9.680;2023-05-23T15:44:18;13.30;58.40
7876;DHT22;69649;53.712;9.680;2023-05-23T15:46:49;13.10;58.60
7876;DHT22;69649;53.712;9.680;2023-05-23T15:49:16;13.00;59.50
7876;DHT22;69649;53.712;9.680;2023-05-23T15:51:44;12.90;59.00
7876;DHT22;69649;53.712;9.680;2023-05-23T15:54:10;13.30;58.70
7876;DHT22;69649;53.712;9.680;2023-05-23T15:56:36;13.30;59.00
7876;DHT22;69649;53.712;9.680;2023-05-23T15:59:02;13.20;58.40
7876;DHT22;69649;53.712;9.680;2023-05-23T16:01:28;13.00;58.50
7876;DHT22;69649;53.712;9.680;2023-05-23T16:03:55;12.80;58.70
7876;DHT22;69649;53.712;9.680;2023-05-23T16:06:21;12.80;58.10
7876;DHT22;69649;53.712;9.680;2023-05-23T16:08:47;12.80;59.20
7876;DHT22;69649;53.712;9.680;2023-05-23T16:11:13;12.70;60.00